sensor_id;sensor_type;location;lat;lon;timestamp;pressure;altitude;pressure_sealevel;temperature;humidity
60897;BME280;46749;32.932;-117.130;2023-04-16T00:01:30;101664.09;;;15.58;55.25
60897;BME280;46749;32.932;-117.130;2023-04-16T00:03:56;101653.63;;;15.58;55.55
60897;BME280;46749;32.932;-117.130;2023-04-16T00:06:22;101657.13;;;15.58;55.38
60897;BME280;46749;32.932;-117.130;2023-04-16T00:08:48;101651.97;;;15.60;55.47
60897;BME280;46749;32.932;-117.130;2023-04-16T00:11:16;101650.19;;;15.59;55.55
60897;BME280;46749;32.932;-117.130;2023-04-16T00:13:42;101649.28;;;15.58;55.28
60897;BME280;46749;32.932;-117.130;2023-04-16T00:16:09;101646.72;;;15.60;55.23
60897;BME280;46749;32.932;-117.130;2023-04-16T00:18:35;101644.97;;;15.59;55.35
60897;BME280;46749;32.932;-117.130;2023-04-16T00:21:01;101640.63;;;15.61;55.43
60897;BME280;46749;32.932;-117.130;2023-04-16T00:23:27;101643.22;;;15.59;55.38
60897;BME280;46749;32.932;-117.130;2023-04-16T00:25:54;101638.03;;;15.61;55.42
60897;BME280;46749;32.932;-117.130;2023-04-16T00:28:25;101642.38;;;15.60;55.32
60897;BME280;46749;32.932;-117.130;2023-04-16T00:30:52;101643.25;;;15.61;55.36
60897;BME280;46749;32.932;-117.130;2023-04-16T00:33:19;101645.00;;;15.60;55.50
60897;BME280;46749;32.932;-117.130;2023-04-16T00:35:46;101648.50;;;15.61;55.54
60897;BME280;46749;32.932;-117.130;2023-04-16T00:38:13;101649.38;;;15.61;55.44
60897;BME280;46749;32.932;-117.130;2023-04-16T00:40:39;101645.06;;;15.62;55.40
60897;BME280;46749;32.932;-117.130;2023-04-16T00:43:05;101650.31;;;15.62;55.61
60897;BME280;46749;32.932;-117.130;2023-04-16T00:45:31;101642.44;;;15.62;55.43
60897;BME280;46749;32.932;-117.130;2023-04-16T00:47:58;101640.72;;;15.62;55.67
60897;BME280;46749;32.932;-117.130;2023-04-16T00:50:25;101652.06;;;15.63;55.40
60897;BME280;46749;32.932;-117.130;2023-04-16T00:52:51;101646.84;;;15.63;55.67
60897;BME280;46749;32.932;-117.130;2023-04-16T00:55:19;101652.06;;;15.63;55.64
60897;BME280;46749;32.932;-117.130;2023-04-16T00:57:46;101649.44;;;15.63;55.17
60897;BME280;46749;32.932;-117.130;2023-04-16T01:00:12;101648.59;;;15.64;55.47
60897;BME280;46749;32.932;-117.130;2023-04-16T01:02:39;101645.09;;;15.63;55.53
60897;BME280;46749;32.932;-117.130;2023-04-16T01:05:05;101639.88;;;15.63;55.30
60897;BME280;46749;32.932;-117.130;2023-04-16T01:07:31;101641.59;;;15.63;55.25
60897;BME280;46749;32.932;-117.130;2023-04-16T01:09:58;101635.50;;;15.64;55.38
60897;BME280;46749;32.932;-117.130;2023-04-16T01:12:24;101629.47;;;15.65;55.44
60897;BME280;46749;32.932;-117.130;2023-04-16T01:14:51;101622.41;;;15.64;55.30
60897;BME280;46749;32.932;-117.130;2023-04-16T01:17:17;101642.56;;;15.65;55.18
60897;BME280;46749;32.932;-117.130;2023-04-16T01:19:43;101638.19;;;15.66;55.51
60897;BME280;46749;32.932;-117.130;2023-04-16T01:22:09;101631.22;;;15.66;55.41
60897;BME280;46749;32.932;-117.130;2023-04-16T01:24:36;101646.94;;;15.66;55.46
60897;BME280;46749;32.932;-117.130;2023-04-16T01:27:03;101646.94;;;15.66;55.56
60897;BME280;46749;32.932;-117.130;2023-04-16T01:29:29;101639.97;;;15.67;55.34
60897;BME280;46749;32.932;-117.130;2023-04-16T01:31:55;101631.22;;;15.66;55.33
60897;BME280;46749;32.932;-117.130;2023-04-16T01:34:21;101633.00;;;15.67;55.35
60897;BME280;46749;32.932;-117.130;2023-04-16T01:36:47;101626.88;;;15.67;55.51
60897;BME280;46749;32.932;-117.130;2023-04-16T01:39:14;101625.16;;;15.67;55.39
60897;BME280;46749;32.932;-117.130;2023-04-16T01:41:41;101631.28;;;15.68;55.35
60897;BME280;46749;32.932;-117.130;2023-04-16T01:44:08;101626.91;;;15.68;55.46
60897;BME280;46749;32.932;-117.130;2023-04-16T01:46:34;101629.53;;;15.68;55.24
60897;BME280;46749;32.932;-117.130;2023-04-16T01:49:01;101630.41;;;15.69;55.35
60897;BME280;46749;32.932;-117.130;2023-04-16T01:51:27;101622.56;;;15.69;55.34
60897;BME280;46749;32.932;-117.130;2023-04-16T01:53:54;101621.69;;;15.68;55.49
60897;BME280;46749;32.932;-117.130;2023-04-16T01:56:20;101624.34;;;15.70;55.39
60897;BME280;46749;32.932;-117.130;2023-04-16T01:58:46;101619.97;;;15.70;55.40
60897;BME280;46749;32.932;-117.130;2023-04-16T02:01:13;101619.09;;;15.70;55.31
60897;BME280;46749;32.932;-117.130;2023-04-16T02:03:40;101624.34;;;15.70;55.25
60897;BME280;46749;32.932;-117.130;2023-04-16T02:06:06;101626.97;;;15.70;55.36
60897;BME280;46749;32.932;-117.130;2023-04-16T02:08:33;101629.59;;;15.71;55.44
60897;BME280;46749;32.932;-117.130;2023-04-16T02:10:59;101632.22;;;15.71;55.54
60897;BME280;46749;32.932;-117.130;2023-04-16T02:13:26;101629.59;;;15.71;55.28
60897;BME280;46749;32.932;-117.130;2023-04-16T02:15:52;101627.84;;;15.70;55.24
60897;BME280;46749;32.932;-117.130;2023-04-16T02:18:18;101624.38;;;15.71;55.21
60897;BME280;46749;32.932;-117.130;2023-04-16T02:20:46;101628.72;;;15.71;55.32
60897;BME280;46749;32.932;-117.130;2023-04-16T02:23:14;101630.53;;;15.72;55.17
60897;BME280;46749;32.932;-117.130;2023-04-16T02:25:42;101629.56;;;15.70;55.13
60897;BME280;46749;32.932;-117.130;2023-04-16T02:28:14;101631.41;;;15.72;55.22
60897;BME280;46749;32.932;-117.130;2023-04-16T02:30:41;101628.78;;;15.72;55.06
60897;BME280;46749;32.932;-117.130;2023-04-16T02:33:09;101624.38;;;15.71;55.15
60897;BME280;46749;32.932;-117.130;2023-04-16T02:35:37;101631.34;;;15.71;55.07
60897;BME280;46749;32.932;-117.130;2023-04-16T02:38:04;101640.09;;;15.71;55.08
60897;BME280;46749;32.932;-117.130;2023-04-16T02:40:30;101640.09;;;15.71;55.16
60897;BME280;46749;32.932;-117.130;2023-04-16T02:42:57;101638.38;;;15.72;55.06
60897;BME280;46749;32.932;-117.130;2023-04-16T02:45:24;101638.31;;;15.70;55.03
60897;BME280;46749;32.932;-117.130;2023-04-16T02:47:50;101647.06;;;15.71;55.29
60897;BME280;46749;32.932;-117.130;2023-04-16T02:50:16;101649.69;;;15.71;55.31
60897;BME280;46749;32.932;-117.130;2023-04-16T02:52:43;101648.78;;;15.70;54.90
60897;BME280;46749;32.932;-117.130;2023-04-16T02:55:09;101653.16;;;15.70;55.04
60897;BME280;46749;32.932;-117.130;2023-04-16T02:57:36;101642.66;;;15.70;55.18
60897;BME280;46749;32.932;-117.130;2023-04-16T03:00:02;101633.94;;;15.69;55.18
60897;BME280;46749;32.932;-117.130;2023-04-16T03:02:32;101642.66;;;15.70;55.18
60897;BME280;46749;32.932;-117.130;2023-04-16T03:04:58;101640.00;;;15.68;55.19
60897;BME280;46749;32.932;-117.130;2023-04-16T03:07:24;101636.53;;;15.69;55.13
60897;BME280;46749;32.932;-117.130;2023-04-16T03:09:51;101641.78;;;15.69;55.15
60897;BME280;46749;32.932;-117.130;2023-04-16T03:12:17;101647.03;;;15.69;55.06
60897;BME280;46749;32.932;-117.130;2023-04-16T03:14:43;101649.63;;;15.69;55.00
60897;BME280;46749;32.932;-117.130;2023-04-16T03:17:09;101659.22;;;15.69;55.05
60897;BME280;46749;32.932;-117.130;2023-04-16T03:19:36;101657.50;;;15.69;55.16
60897;BME280;46749;32.932;-117.130;2023-04-16T03:22:02;101654.84;;;15.68;54.97
60897;BME280;46749;32.932;-117.130;2023-04-16T03:24:28;101661.84;;;15.69;55.37
60897;BME280;46749;32.932;-117.130;2023-04-16T03:26:56;101662.72;;;15.69;55.11
60897;BME280;46749;32.932;-117.130;2023-04-16T03:29:24;101665.31;;;15.68;55.20
60897;BME280;46749;32.932;-117.130;2023-04-16T03:31:51;101667.91;;;15.66;54.99
60897;BME280;46749;32.932;-117.130;2023-04-16T03:34:17;101674.91;;;15.67;55.25
60897;BME280;46749;32.932;-117.130;2023-04-16T03:36:43;101682.75;;;15.67;55.11
60897;BME280;46749;32.932;-117.130;2023-04-16T03:39:10;101693.25;;;15.67;55.18
60897;BME280;46749;32.932;-117.130;2023-04-16T03:41:36;101685.38;;;15.67;55.22
60897;BME280;46749;32.932;-117.130;2023-04-16T03:44:02;101688.84;;;15.66;54.83
60897;BME280;46749;32.932;-117.130;2023-04-16T03:46:28;101688.84;;;15.66;55.11
60897;BME280;46749;32.932;-117.130;2023-04-16T03:48:55;101691.47;;;15.66;55.02
60897;BME280;46749;32.932;-117.130;2023-04-16T03:51:21;101688.84;;;15.66;55.29
60897;BME280;46749;32.932;-117.130;2023-04-16T03:53:47;101690.56;;;15.66;55.20
60897;BME280;46749;32.932;-117.130;2023-04-16T03:56:13;101692.31;;;15.65;55.16
60897;BME280;46749;32.932;-117.130;2023-04-16T03:58:40;101697.56;;;15.65;55.14
60897;BME280;46749;32.932;-117.130;2023-04-16T04:01:06;101702.78;;;15.65;55.08
60897;BME280;46749;32.932;-117.130;2023-04-16T04:03:32;101702.78;;;15.65;55.00
60897;BME280;46749;32.932;-117.130;2023-04-16T04:05:58;101705.41;;;15.65;55.33
60897;BME280;46749;32.932;-117.130;2023-04-16T04:08:24;101701.88;;;15.64;55.29
60897;BME280;46749;32.932;-117.130;2023-04-16T04:10:51;101711.44;;;15.64;55.14
60897;BME280;46749;32.932;-117.130;2023-04-16T04:13:18;101708.78;;;15.62;55.12
60897;BME280;46749;32.932;-117.130;2023-04-16T04:15:44;101711.44;;;15.64;55.22
60897;BME280;46749;32.932;-117.130;2023-04-16T04:18:10;101702.69;;;15.62;55.27
60897;BME280;46749;32.932;-117.130;2023-04-16T04:20:39;101714.03;;;15.62;55.13
60897;BME280;46749;32.932;-117.130;2023-04-16T04:23:06;101715.81;;;15.63;55.11
60897;BME280;46749;32.932;-117.130;2023-04-16T04:25:32;101716.75;;;15.66;55.11
60897;BME280;46749;32.932;-117.130;2023-04-16T04:27:58;101714.19;;;15.67;55.16
60897;BME280;46749;32.932;-117.130;2023-04-16T04:30:24;101727.28;;;15.67;55.27
60897;BME280;46749;32.932;-117.130;2023-04-16T04:32:51;101718.56;;;15.68;55.43
60897;BME280;46749;32.932;-117.130;2023-04-16T04:35:17;101729.91;;;15.67;55.50
60897;BME280;46749;32.932;-117.130;2023-04-16T04:37:43;101724.66;;;15.67;55.52
60897;BME280;46749;32.932;-117.130;2023-04-16T04:40:10;101732.53;;;15.67;55.42
60897;BME280;46749;32.932;-117.130;2023-04-16T04:42:37;101731.63;;;15.67;55.27
60897;BME280;46749;32.932;-117.130;2023-04-16T04:45:04;101726.41;;;15.67;55.42
60897;BME280;46749;32.932;-117.130;2023-04-16T04:47:30;101731.63;;;15.67;55.37
60897;BME280;46749;32.932;-117.130;2023-04-16T04:49:56;101740.34;;;15.66;55.43
60897;BME280;46749;32.932;-117.130;2023-04-16T04:52:23;101741.22;;;15.66;55.33
60897;BME280;46749;32.932;-117.130;2023-04-16T04:54:49;101738.66;;;15.68;55.50
60897;BME280;46749;32.932;-117.130;2023-04-16T04:57:15;101743.03;;;15.69;55.25
60897;BME280;46749;32.932;-117.130;2023-04-16T04:59:41;101736.94;;;15.70;55.60
60897;BME280;46749;32.932;-117.130;2023-04-16T05:02:07;101748.31;;;15.70;55.41
60897;BME280;46749;32.932;-117.130;2023-04-16T05:04:34;101747.44;;;15.70;55.62
60897;BME280;46749;32.932;-117.130;2023-04-16T05:07:00;101748.28;;;15.69;55.53
60897;BME280;46749;32.932;-117.130;2023-04-16T05:09:27;101747.38;;;15.68;55.60
60897;BME280;46749;32.932;-117.130;2023-04-16T05:11:53;101750.00;;;15.68;55.66
60897;BME280;46749;32.932;-117.130;2023-04-16T05:14:19;101746.47;;;15.66;55.64
60897;BME280;46749;32.932;-117.130;2023-04-16T05:16:45;101753.47;;;15.67;55.37
60897;BME280;46749;32.932;-117.130;2023-04-16T05:19:32;101759.59;;;15.68;55.60
60897;BME280;46749;32.932;-117.130;2023-04-16T05:21:58;101757.00;;;15.69;55.52
60897;BME280;46749;32.932;-117.130;2023-04-16T05:24:27;101757.00;;;15.69;55.17
60897;BME280;46749;32.932;-117.130;2023-04-16T05:26:55;101758.78;;;15.70;55.46
60897;BME280;46749;32.932;-117.130;2023-04-16T05:29:22;101757.06;;;15.71;55.48
60897;BME280;46749;32.932;-117.130;2023-04-16T05:31:48;101759.63;;;15.69;55.57
60897;BME280;46749;32.932;-117.130;2023-04-16T05:34:14;101757.06;;;15.71;55.51
60897;BME280;46749;32.932;-117.130;2023-04-16T05:36:40;101764.84;;;15.68;55.53
60897;BME280;46749;32.932;-117.130;2023-04-16T05:39:07;101762.22;;;15.68;55.58
60897;BME280;46749;32.932;-117.130;2023-04-16T05:41:33;101756.13;;;15.69;55.61
60897;BME280;46749;32.932;-117.130;2023-04-16T05:43:59;101759.59;;;15.68;55.43
60897;BME280;46749;32.932;-117.130;2023-04-16T05:46:25;101761.31;;;15.67;55.34
60897;BME280;46749;32.932;-117.130;2023-04-16T05:48:52;101756.94;;;15.66;55.55
60897;BME280;46749;32.932;-117.130;2023-04-16T05:51:18;101764.78;;;15.66;55.52
60897;BME280;46749;32.932;-117.130;2023-04-16T05:53:46;101765.63;;;15.65;55.33
60897;BME280;46749;32.932;-117.130;2023-04-16T05:56:12;101761.22;;;15.64;55.37
60897;BME280;46749;32.932;-117.130;2023-04-16T05:58:39;101764.69;;;15.63;55.37
60897;BME280;46749;32.932;-117.130;2023-04-16T06:01:05;101766.41;;;15.62;55.39
60897;BME280;46749;32.932;-117.130;2023-04-16T06:03:32;101766.41;;;15.62;55.24
60897;BME280;46749;32.932;-117.130;2023-04-16T06:05:58;101765.53;;;15.62;55.21
60897;BME280;46749;32.932;-117.130;2023-04-16T06:08:24;101768.94;;;15.61;55.24
60897;BME280;46749;32.932;-117.130;2023-04-16T06:10:50;101775.91;;;15.60;55.36
60897;BME280;46749;32.932;-117.130;2023-04-16T06:13:17;101768.03;;;15.59;55.32
60897;BME280;46749;32.932;-117.130;2023-04-16T06:15:43;101770.63;;;15.59;55.32
60897;BME280;46749;32.932;-117.130;2023-04-16T06:18:09;101769.72;;;15.58;55.37
60897;BME280;46749;32.932;-117.130;2023-04-16T06:20:35;101777.56;;;15.58;55.28
60897;BME280;46749;32.932;-117.130;2023-04-16T06:23:02;101777.53;;;15.57;55.10
60897;BME280;46749;32.932;-117.130;2023-04-16T06:25:28;101777.50;;;15.55;55.22
60897;BME280;46749;32.932;-117.130;2023-04-16T06:27:54;101780.09;;;15.55;55.22
60897;BME280;46749;32.932;-117.130;2023-04-16T06:30:20;101778.38;;;15.56;55.18
60897;BME280;46749;32.932;-117.130;2023-04-16T06:32:46;101777.44;;;15.54;55.32
60897;BME280;46749;32.932;-117.130;2023-04-16T06:35:13;101777.44;;;15.54;55.34
60897;BME280;46749;32.932;-117.130;2023-04-16T06:37:39;101784.34;;;15.52;55.25
60897;BME280;46749;32.932;-117.130;2023-04-16T06:40:06;101777.38;;;15.52;55.23
60897;BME280;46749;32.932;-117.130;2023-04-16T06:42:32;101779.09;;;15.52;55.34
60897;BME280;46749;32.932;-117.130;2023-04-16T06:44:59;101774.72;;;15.51;55.16
60897;BME280;46749;32.932;-117.130;2023-04-16T06:47:25;101776.44;;;15.50;55.18
60897;BME280;46749;32.932;-117.130;2023-04-16T06:49:51;101783.41;;;15.50;55.18
60897;BME280;46749;32.932;-117.130;2023-04-16T06:52:18;101781.63;;;15.49;55.00
60897;BME280;46749;32.932;-117.130;2023-04-16T06:54:44;101782.47;;;15.48;54.95
60897;BME280;46749;32.932;-117.130;2023-04-16T06:57:10;101777.25;;;15.48;55.21
60897;BME280;46749;32.932;-117.130;2023-04-16T06:59:36;101780.72;;;15.47;55.18
60897;BME280;46749;32.932;-117.130;2023-04-16T07:02:03;101775.41;;;15.45;55.29
60897;BME280;46749;32.932;-117.130;2023-04-16T07:04:29;101784.13;;;15.46;55.38
60897;BME280;46749;32.932;-117.130;2023-04-16T07:06:55;101775.34;;;15.44;55.20
60897;BME280;46749;32.932;-117.130;2023-04-16T07:09:21;101775.34;;;15.44;55.04
60897;BME280;46749;32.932;-117.130;2023-04-16T07:11:47;101775.34;;;15.44;55.11
60897;BME280;46749;32.932;-117.130;2023-04-16T07:14:14;101778.81;;;15.43;55.02
60897;BME280;46749;32.932;-117.130;2023-04-16T07:16:40;101784.06;;;15.43;55.24
60897;BME280;46749;32.932;-117.130;2023-04-16T07:19:06;101784.91;;;15.42;55.04
60897;BME280;46749;32.932;-117.130;2023-04-16T07:21:33;101780.50;;;15.41;55.15
60897;BME280;46749;32.932;-117.130;2023-04-16T07:23:59;101781.31;;;15.39;55.34
60897;BME280;46749;32.932;-117.130;2023-04-16T07:26:25;101791.78;;;15.39;54.98
60897;BME280;46749;32.932;-117.130;2023-04-16T07:28:52;101785.66;;;15.39;55.26
60897;BME280;46749;32.932;-117.130;2023-04-16T07:31:18;101785.63;;;15.37;55.02
60897;BME280;46749;32.932;-117.130;2023-04-16T07:33:44;101790.84;;;15.37;55.33
60897;BME280;46749;32.932;-117.130;2023-04-16T07:36:10;101796.94;;;15.36;54.91
60897;BME280;46749;32.932;-117.130;2023-04-16T07:38:37;101804.78;;;15.36;55.25
60897;BME280;46749;32.932;-117.130;2023-04-16T07:41:03;101803.00;;;15.35;55.04
60897;BME280;46749;32.932;-117.130;2023-04-16T07:43:29;101805.63;;;15.35;55.17
60897;BME280;46749;32.932;-117.130;2023-04-16T07:45:55;101800.41;;;15.35;55.23
60897;BME280;46749;32.932;-117.130;2023-04-16T07:48:22;101791.56;;;15.33;55.21
60897;BME280;46749;32.932;-117.130;2023-04-16T07:50:48;101793.31;;;15.33;55.14
60897;BME280;46749;32.932;-117.130;2023-04-16T07:53:15;101792.41;;;15.32;55.16
60897;BME280;46749;32.932;-117.130;2023-04-16T07:55:41;101788.03;;;15.31;55.12
60897;BME280;46749;32.932;-117.130;2023-04-16T07:58:07;101783.63;;;15.30;55.18
60897;BME280;46749;32.932;-117.130;2023-04-16T08:00:34;101787.97;;;15.30;55.16
60897;BME280;46749;32.932;-117.130;2023-04-16T08:03:21;101781.88;;;15.29;54.97
60897;BME280;46749;32.932;-117.130;2023-04-16T08:05:46;101777.50;;;15.30;55.04
60897;BME280;46749;32.932;-117.130;2023-04-16T08:08:13;101767.94;;;15.30;55.03
60897;BME280;46749;32.932;-117.130;2023-04-16T08:10:39;101778.34;;;15.29;54.86
60897;BME280;46749;32.932;-117.130;2023-04-16T08:13:05;101773.09;;;15.27;55.11
60897;BME280;46749;32.932;-117.130;2023-04-16T08:15:31;101775.63;;;15.26;55.12
60897;BME280;46749;32.932;-117.130;2023-04-16T08:17:58;101779.97;;;15.25;55.15
60897;BME280;46749;32.932;-117.130;2023-04-16T08:20:24;101774.72;;;15.25;55.26
60897;BME280;46749;32.932;-117.130;2023-04-16T08:22:52;101765.94;;;15.23;55.02
60897;BME280;46749;32.932;-117.130;2023-04-16T08:25:18;101765.94;;;15.23;54.96
60897;BME280;46749;32.932;-117.130;2023-04-16T08:27:45;101766.78;;;15.22;55.16
60897;BME280;46749;32.932;-117.130;2023-04-16T08:30:11;101767.63;;;15.21;54.94
60897;BME280;46749;32.932;-117.130;2023-04-16T08:32:38;101765.03;;;15.21;54.94
60897;BME280;46749;32.932;-117.130;2023-04-16T08:35:04;101763.22;;;15.20;55.26
60897;BME280;46749;32.932;-117.130;2023-04-16T08:37:31;101771.06;;;15.20;55.17
60897;BME280;46749;32.932;-117.130;2023-04-16T08:39:57;101760.59;;;15.20;55.11
60897;BME280;46749;32.932;-117.130;2023-04-16T08:42:31;101755.28;;;15.17;54.78
60897;BME280;46749;32.932;-117.130;2023-04-16T08:45:12;101759.66;;;15.18;54.84
60897;BME280;46749;32.932;-117.130;2023-04-16T08:47:40;101759.66;;;15.18;55.14
60897;BME280;46749;32.932;-117.130;2023-04-16T08:50:08;101755.28;;;15.17;55.13
60897;BME280;46749;32.932;-117.130;2023-04-16T08:52:37;101755.22;;;15.16;55.00
60897;BME280;46749;32.932;-117.130;2023-04-16T08:55:12;101755.16;;;15.14;54.83
60897;BME280;46749;32.932;-117.130;2023-04-16T08:57:50;101753.38;;;15.13;54.97
60897;BME280;46749;32.932;-117.130;2023-04-16T09:00:19;101751.66;;;15.14;54.83
60897;BME280;46749;32.932;-117.130;2023-04-16T09:02:46;101748.09;;;15.11;54.95
60897;BME280;46749;32.932;-117.130;2023-04-16T09:05:14;101743.75;;;15.12;54.66
60897;BME280;46749;32.932;-117.130;2023-04-16T09:07:46;101744.59;;;15.11;54.93
60897;BME280;46749;32.932;-117.130;2023-04-16T09:10:16;101748.91;;;15.09;54.84
60897;BME280;46749;32.932;-117.130;2023-04-16T09:13:01;101751.53;;;15.09;54.92
60897;BME280;46749;32.932;-117.130;2023-04-16T09:15:27;101751.53;;;15.09;54.78
60897;BME280;46749;32.932;-117.130;2023-04-16T09:17:54;101745.31;;;15.07;55.05
60897;BME280;46749;32.932;-117.130;2023-04-16T09:20:22;101751.41;;;15.06;55.04
60897;BME280;46749;32.932;-117.130;2023-04-16T09:22:48;101747.88;;;15.05;54.86
60897;BME280;46749;32.932;-117.130;2023-04-16T09:25:15;101744.38;;;15.05;54.89
60897;BME280;46749;32.932;-117.130;2023-04-16T09:27:41;101738.28;;;15.04;54.83
60897;BME280;46749;32.932;-117.130;2023-04-16T09:30:25;101737.38;;;15.04;54.97
60897;BME280;46749;32.932;-117.130;2023-04-16T09:33:10;101740.84;;;15.03;54.81
60897;BME280;46749;32.932;-117.130;2023-04-16T09:35:50;101732.91;;;15.01;54.86
60897;BME280;46749;32.932;-117.130;2023-04-16T09:38:17;101730.25;;;15.00;54.79
60897;BME280;46749;32.932;-117.130;2023-04-16T09:40:44;101725.91;;;15.00;55.07
60897;BME280;46749;32.932;-117.130;2023-04-16T09:43:14;101731.09;;;14.99;54.93
60897;BME280;46749;32.932;-117.130;2023-04-16T09:45:51;101730.25;;;15.00;54.89
60897;BME280;46749;32.932;-117.130;2023-04-16T09:50:54;101721.47;;;14.98;54.95
60897;BME280;46749;32.932;-117.130;2023-04-16T09:53:30;101724.06;;;14.96;54.81
60897;BME280;46749;32.932;-117.130;2023-04-16T09:56:04;101715.28;;;14.96;54.93
60897;BME280;46749;32.932;-117.130;2023-04-16T09:58:31;101717.00;;;14.95;54.67
60897;BME280;46749;32.932;-117.130;2023-04-16T10:01:01;101709.13;;;14.94;54.92
60897;BME280;46749;32.932;-117.130;2023-04-16T10:03:32;101713.47;;;14.93;54.96
60897;BME280;46749;32.932;-117.130;2023-04-16T10:06:16;101715.16;;;14.91;54.69
60897;BME280;46749;32.932;-117.130;2023-04-16T10:08:54;101709.03;;;14.91;54.74
60897;BME280;46749;32.932;-117.130;2023-04-16T10:11:23;101714.25;;;14.91;54.78
60897;BME280;46749;32.932;-117.130;2023-04-16T10:13:50;101712.50;;;14.90;54.88
60897;BME280;46749;32.932;-117.130;2023-04-16T10:16:17;101711.56;;;14.89;54.88
60897;BME280;46749;32.932;-117.130;2023-04-16T10:18:44;101711.53;;;14.88;54.81
60897;BME280;46749;32.932;-117.130;2023-04-16T10:21:11;101711.53;;;14.88;54.83
60897;BME280;46749;32.932;-117.130;2023-04-16T10:23:38;101722.81;;;14.87;54.88
60897;BME280;46749;32.932;-117.130;2023-04-16T10:26:05;101732.41;;;14.86;54.87
60897;BME280;46749;32.932;-117.130;2023-04-16T10:28:31;101726.28;;;14.86;54.89
60897;BME280;46749;32.932;-117.130;2023-04-16T10:31:02;101724.50;;;14.84;54.73
60897;BME280;46749;32.932;-117.130;2023-04-16T10:33:36;101723.63;;;14.84;54.78
60897;BME280;46749;32.932;-117.130;2023-04-16T10:36:12;101726.16;;;14.82;54.69
60897;BME280;46749;32.932;-117.130;2023-04-16T10:38:40;101735.72;;;14.82;54.70
60897;BME280;46749;32.932;-117.130;2023-04-16T10:41:09;101730.50;;;14.82;54.61
60897;BME280;46749;32.932;-117.130;2023-04-16T10:43:41;101726.06;;;14.79;54.72
60897;BME280;46749;32.932;-117.130;2023-04-16T10:46:25;101726.06;;;14.79;54.79
60897;BME280;46749;32.932;-117.130;2023-04-16T10:48:57;101725.19;;;14.79;54.73
60897;BME280;46749;32.932;-117.130;2023-04-16T10:51:31;101734.75;;;14.78;54.96
60897;BME280;46749;32.932;-117.130;2023-04-16T10:54:03;101733.88;;;14.78;54.75
60897;BME280;46749;32.932;-117.130;2023-04-16T10:56:33;101731.16;;;14.76;54.54
60897;BME280;46749;32.932;-117.130;2023-04-16T10:59:00;101728.56;;;14.76;54.89
60897;BME280;46749;32.932;-117.130;2023-04-16T11:01:46;101727.63;;;14.74;54.93
60897;BME280;46749;32.932;-117.130;2023-04-16T11:09:50;101723.19;;;14.72;54.78
60897;BME280;46749;32.932;-117.130;2023-04-16T11:12:38;101728.34;;;14.70;54.69
60897;BME280;46749;32.932;-117.130;2023-04-16T11:15:10;101730.16;;;14.71;54.62
60897;BME280;46749;32.932;-117.130;2023-04-16T11:17:42;101713.50;;;14.69;54.74
60897;BME280;46749;32.932;-117.130;2023-04-16T11:20:19;101717.84;;;14.69;54.74
60897;BME280;46749;32.932;-117.130;2023-04-16T11:22:47;101719.56;;;14.68;54.44
60897;BME280;46749;32.932;-117.130;2023-04-16T11:25:34;101721.25;;;14.66;54.67
60897;BME280;46749;32.932;-117.130;2023-04-16T11:28:01;101723.84;;;14.66;54.75
60897;BME280;46749;32.932;-117.130;2023-04-16T11:30:34;101723.84;;;14.66;54.80
60897;BME280;46749;32.932;-117.130;2023-04-16T11:33:07;101722.09;;;14.65;54.71
60897;BME280;46749;32.932;-117.130;2023-04-16T11:35:34;101725.50;;;14.64;55.05
60897;BME280;46749;32.932;-117.130;2023-04-16T11:38:00;101725.47;;;14.63;54.56
60897;BME280;46749;32.932;-117.130;2023-04-16T11:40:30;101727.19;;;14.62;54.62
60897;BME280;46749;32.932;-117.130;2023-04-16T11:43:01;101731.53;;;14.62;54.64
60897;BME280;46749;32.932;-117.130;2023-04-16T11:45:28;101727.13;;;14.61;54.87
60897;BME280;46749;32.932;-117.130;2023-04-16T11:47:54;101736.72;;;14.60;54.73
60897;BME280;46749;32.932;-117.130;2023-04-16T11:50:27;101734.94;;;14.59;54.75
60897;BME280;46749;32.932;-117.130;2023-04-16T11:53:02;101734.06;;;14.59;54.70
60897;BME280;46749;32.932;-117.130;2023-04-16T11:55:28;101735.75;;;14.58;54.85
60897;BME280;46749;32.932;-117.130;2023-04-16T11:57:55;101735.75;;;14.58;54.69
60897;BME280;46749;32.932;-117.130;2023-04-16T12:00:21;101733.09;;;14.56;54.73
60897;BME280;46749;32.932;-117.130;2023-04-16T12:02:52;101738.31;;;14.56;54.75
60897;BME280;46749;32.932;-117.130;2023-04-16T12:05:36;101740.88;;;14.55;54.52
60897;BME280;46749;32.932;-117.130;2023-04-16T12:08:08;101740.84;;;14.53;54.43
60897;BME280;46749;32.932;-117.130;2023-04-16T12:10:36;101740.84;;;14.53;54.80
60897;BME280;46749;32.932;-117.130;2023-04-16T12:13:16;101751.25;;;14.52;54.68
60897;BME280;46749;32.932;-117.130;2023-04-16T12:15:47;101759.09;;;14.52;54.60
60897;BME280;46749;32.932;-117.130;2023-04-16T12:18:15;101751.09;;;14.49;54.49
60897;BME280;46749;32.932;-117.130;2023-04-16T12:20:43;101755.44;;;14.48;54.81
60897;BME280;46749;32.932;-117.130;2023-04-16T12:23:32;101756.34;;;14.49;54.80
60897;BME280;46749;32.932;-117.130;2023-04-16T12:25:57;101759.78;;;14.48;54.90
60897;BME280;46749;32.932;-117.130;2023-04-16T12:28:31;101773.69;;;14.47;54.82
60897;BME280;46749;32.932;-117.130;2023-04-16T12:30:58;101765.75;;;14.45;54.63
60897;BME280;46749;32.932;-117.130;2023-04-16T12:33:24;101771.88;;;14.46;54.61